QXE2187 KMFR-KLAX
Flight info
| Callsign | QXE2187 |
|---|---|
| Flight time | N/A |
| Altitude | 35000 |
| Route | JKSN1 OED RBL SAC BURGL IRNMN2 |
| Aircraft | E75L/M-SDE3GILORVW/S |
Departure
| Time | 2026-04-13 14:49 |
|---|---|
| Airport | Rogue Valley International-Medford Airport (KMFR) |
Arrival
| Time | N/A |
|---|---|
| Airport | Los Angeles International Airport (KLAX) |
| Time | Latitude | Longitude | Altitude | Speed | Heading |
|---|---|---|---|---|---|
| 2026-04-13 14:29 | 42.36810 | -122.87264 | 1323 ft | 0 kts | 186° |
| 2026-04-13 14:42 | 42.36830 | -122.87260 | 1323 ft | 4 kts | 191° |
| 2026-04-13 14:43 | 42.36841 | -122.87257 | 1323 ft | 4 kts | 195° |
| 2026-04-13 14:43 | 42.36857 | -122.87250 | 1323 ft | 0 kts | 205° |
| 2026-04-13 14:45 | 42.36850 | -122.87249 | 1323 ft | 2 kts | 156° |
| 2026-04-13 14:45 | 42.36856 | -122.87224 | 1323 ft | 7 kts | 36° |
| 2026-04-13 14:45 | 42.36920 | -122.87193 | 1323 ft | 12 kts | 353° |
| 2026-04-13 14:45 | 42.37014 | -122.87239 | 1323 ft | 17 kts | 338° |
| 2026-04-13 14:46 | 42.37142 | -122.87305 | 1324 ft | 21 kts | 339° |
| 2026-04-13 14:46 | 42.37299 | -122.87387 | 1321 ft | 27 kts | 339° |
| 2026-04-13 14:46 | 42.37489 | -122.87485 | 1318 ft | 32 kts | 339° |
| 2026-04-13 14:46 | 42.37699 | -122.87596 | 1317 ft | 33 kts | 338° |
| 2026-04-13 14:47 | 42.37915 | -122.87710 | 1317 ft | 33 kts | 339° |
| 2026-04-13 14:47 | 42.38128 | -122.87821 | 1310 ft | 33 kts | 339° |
| 2026-04-13 14:47 | 42.38351 | -122.87938 | 1300 ft | 36 kts | 339° |
| 2026-04-13 14:47 | 42.38530 | -122.88033 | 1298 ft | 17 kts | 339° |
| 2026-04-13 14:48 | 42.38600 | -122.87960 | 1299 ft | 14 kts | 71° |
| 2026-04-13 14:48 | 42.38561 | -122.87887 | 1300 ft | 8 kts | 158° |
| 2026-04-13 14:48 | 42.38427 | -122.87817 | 1302 ft | 51 kts | 160° |
| 2026-04-13 14:48 | 42.37849 | -122.87515 | 1315 ft | 125 kts | 158° |
| 2026-04-13 14:49 | 42.36867 | -122.86999 | 1623 ft | 164 kts | 159° |
| 2026-04-13 14:49 | 42.35785 | -122.86483 | 2575 ft | 164 kts | 168° |
| 2026-04-13 14:49 | 42.34662 | -122.86666 | 3184 ft | 171 kts | 212° |
| 2026-04-13 14:49 | 42.33991 | -122.87963 | 3831 ft | 177 kts | 260° |
| 2026-04-13 14:50 | 42.34222 | -122.89597 | 4394 ft | 185 kts | 304° |
| 2026-04-13 14:50 | 42.35240 | -122.90584 | 5117 ft | 178 kts | 341° |
| 2026-04-13 14:50 | 42.36429 | -122.91093 | 5697 ft | 184 kts | 341° |
| 2026-04-13 14:50 | 42.37668 | -122.91609 | 6275 ft | 188 kts | 340° |
| 2026-04-13 14:51 | 42.38958 | -122.92257 | 6634 ft | 211 kts | 339° |
| 2026-04-13 14:51 | 42.40537 | -122.92473 | 6799 ft | 247 kts | 5° |
| 2026-04-13 14:51 | 42.42320 | -122.92134 | 7177 ft | 269 kts | 6° |
| 2026-04-13 14:51 | 42.44212 | -122.91793 | 7861 ft | 277 kts | 6° |
| 2026-04-13 14:52 | 42.46109 | -122.91453 | 8710 ft | 279 kts | 5° |
| 2026-04-13 14:52 | 42.48044 | -122.91402 | 9595 ft | 278 kts | 358° |
| 2026-04-13 14:52 | 42.49950 | -122.90910 | 10260 ft | 290 kts | 22° |
| 2026-04-13 14:52 | 42.51523 | -122.89074 | 10636 ft | 312 kts | 55° |
| 2026-04-13 14:53 | 42.52200 | -122.86254 | 11295 ft | 323 kts | 85° |
| 2026-04-13 14:53 | 42.51840 | -122.83233 | 12064 ft | 330 kts | 110° |
| 2026-04-13 14:53 | 42.50603 | -122.80601 | 12839 ft | 337 kts | 136° |
| 2026-04-13 14:53 | 42.48609 | -122.78949 | 13662 ft | 340 kts | 162° |
| 2026-04-13 14:54 | 42.46309 | -122.78154 | 14484 ft | 343 kts | 170° |
| 2026-04-13 14:54 | 42.43956 | -122.77483 | 15303 ft | 348 kts | 168° |
| 2026-04-13 14:54 | 42.41589 | -122.76702 | 16126 ft | 353 kts | 167° |
| 2026-04-13 14:54 | 42.39196 | -122.75859 | 16917 ft | 358 kts | 167° |
| 2026-04-13 14:55 | 42.36767 | -122.75013 | 17712 ft | 363 kts | 167° |
| 2026-04-13 14:55 | 42.34311 | -122.74144 | 18484 ft | 368 kts | 167° |
| 2026-04-13 14:55 | 42.31824 | -122.73252 | 19219 ft | 370 kts | 167° |
| 2026-04-13 14:55 | 42.29310 | -122.72403 | 19920 ft | 373 kts | 167° |
| 2026-04-13 14:56 | 42.26788 | -122.71548 | 20565 ft | 376 kts | 167° |
| 2026-04-13 14:56 | 42.24247 | -122.70673 | 21218 ft | 378 kts | 167° |
| 2026-04-13 14:56 | 42.21705 | -122.69825 | 21813 ft | 382 kts | 167° |
| 2026-04-13 14:56 | 42.19104 | -122.68988 | 22405 ft | 385 kts | 168° |
| 2026-04-13 14:57 | 42.16472 | -122.68170 | 23035 ft | 388 kts | 168° |
| 2026-04-13 14:57 | 42.13828 | -122.67354 | 23678 ft | 391 kts | 168° |
| 2026-04-13 14:57 | 42.11157 | -122.66550 | 24187 ft | 395 kts | 168° |
| 2026-04-13 14:58 | 42.05732 | -122.64937 | 25161 ft | 403 kts | 168° |
| 2026-04-13 14:58 | 42.02972 | -122.64167 | 25644 ft | 407 kts | 168° |
| 2026-04-13 14:58 | 42.00187 | -122.63383 | 26106 ft | 410 kts | 168° |
| 2026-04-13 14:58 | 41.97376 | -122.62605 | 26552 ft | 414 kts | 168° |
| 2026-04-13 14:59 | 41.94543 | -122.61835 | 26990 ft | 417 kts | 168° |
| 2026-04-13 14:59 | 41.91680 | -122.61060 | 27348 ft | 422 kts | 168° |
| 2026-04-13 14:59 | 41.88778 | -122.60281 | 27776 ft | 426 kts | 169° |
| 2026-04-13 14:59 | 41.85900 | -122.59522 | 28183 ft | 429 kts | 169° |
| 2026-04-13 15:00 | 41.82955 | -122.58771 | 28561 ft | 433 kts | 169° |
| 2026-04-13 15:00 | 41.79983 | -122.58013 | 28976 ft | 436 kts | 169° |
| 2026-04-13 15:00 | 41.76991 | -122.57250 | 29373 ft | 439 kts | 169° |
| 2026-04-13 15:00 | 41.73973 | -122.56492 | 29755 ft | 442 kts | 169° |
| 2026-04-13 15:01 | 41.70934 | -122.55739 | 30151 ft | 445 kts | 169° |
| 2026-04-13 15:01 | 41.67871 | -122.54996 | 30489 ft | 448 kts | 169° |
| 2026-04-13 15:01 | 41.64802 | -122.54246 | 30841 ft | 449 kts | 169° |
| 2026-04-13 15:01 | 41.61711 | -122.53494 | 31137 ft | 452 kts | 169° |
| 2026-04-13 15:02 | 41.58604 | -122.52763 | 31413 ft | 454 kts | 170° |
| 2026-04-13 15:02 | 41.55481 | -122.52034 | 31685 ft | 457 kts | 170° |
| 2026-04-13 15:02 | 41.52376 | -122.51319 | 31868 ft | 460 kts | 170° |
| 2026-04-13 15:02 | 41.49165 | -122.50608 | 32135 ft | 463 kts | 170° |
| 2026-04-13 15:03 | 41.46026 | -122.49904 | 32430 ft | 464 kts | 170° |
| 2026-04-13 15:03 | 41.42837 | -122.49182 | 32786 ft | 464 kts | 170° |
| 2026-04-13 15:03 | 41.39653 | -122.48452 | 33144 ft | 463 kts | 170° |
| 2026-04-13 15:03 | 41.36472 | -122.47736 | 33490 ft | 463 kts | 170° |
| 2026-04-13 15:04 | 41.33291 | -122.47030 | 33819 ft | 463 kts | 170° |
| 2026-04-13 15:04 | 41.30110 | -122.46327 | 34138 ft | 463 kts | 170° |
| 2026-04-13 15:04 | 41.26923 | -122.45639 | 34343 ft | 465 kts | 171° |
| 2026-04-13 15:04 | 41.23732 | -122.44953 | 34625 ft | 464 kts | 171° |
| 2026-04-13 15:05 | 41.20549 | -122.44263 | 34880 ft | 463 kts | 171° |
| 2026-04-13 15:05 | 41.17369 | -122.43580 | 35184 ft | 461 kts | 171° |
| 2026-04-13 15:05 | 41.14179 | -122.42903 | 35247 ft | 467 kts | 172° |
| 2026-04-13 15:06 | 41.07645 | -122.41658 | 35261 ft | 481 kts | 172° |
| 2026-04-13 15:06 | 41.00972 | -122.40418 | 35143 ft | 485 kts | 172° |
| 2026-04-13 15:07 | 40.94311 | -122.39142 | 35156 ft | 487 kts | 172° |
| 2026-04-13 15:07 | 40.87602 | -122.37861 | 35162 ft | 487 kts | 172° |
| 2026-04-13 15:08 | 40.80890 | -122.36584 | 35153 ft | 487 kts | 172° |
| 2026-04-13 15:08 | 40.74159 | -122.35302 | 35152 ft | 488 kts | 172° |
| 2026-04-13 15:09 | 40.67435 | -122.34029 | 35166 ft | 488 kts | 172° |
| 2026-04-13 15:09 | 40.60757 | -122.32765 | 35173 ft | 488 kts | 172° |
| 2026-04-13 15:10 | 40.54028 | -122.31495 | 35175 ft | 488 kts | 172° |
| 2026-04-13 15:10 | 40.47305 | -122.30228 | 35171 ft | 488 kts | 172° |
| 2026-04-13 15:11 | 40.40576 | -122.28960 | 35176 ft | 490 kts | 172° |
| 2026-04-13 15:11 | 40.33832 | -122.27697 | 35170 ft | 489 kts | 172° |
| 2026-04-13 15:12 | 40.27088 | -122.26433 | 35197 ft | 489 kts | 172° |
| 2026-04-13 15:12 | 40.20350 | -122.25174 | 35200 ft | 489 kts | 172° |
| 2026-04-13 15:13 | 40.13654 | -122.23926 | 35204 ft | 489 kts | 172° |
| 2026-04-13 15:13 | 40.06992 | -122.22136 | 35192 ft | 489 kts | 162° |
| 2026-04-13 15:14 | 40.00511 | -122.19369 | 35161 ft | 489 kts | 161° |
| 2026-04-13 15:14 | 39.94036 | -122.16630 | 35167 ft | 489 kts | 161° |
| 2026-04-13 15:15 | 39.87552 | -122.13912 | 35166 ft | 489 kts | 162° |
| 2026-04-13 15:15 | 39.81106 | -122.11225 | 35164 ft | 490 kts | 162° |
| 2026-04-13 15:16 | 39.74616 | -122.08527 | 35164 ft | 489 kts | 162° |
| 2026-04-13 15:16 | 39.68133 | -122.05838 | 35160 ft | 488 kts | 162° |
| 2026-04-13 15:17 | 39.61660 | -122.03158 | 35168 ft | 488 kts | 162° |
| 2026-04-13 15:17 | 39.55188 | -122.00483 | 35165 ft | 488 kts | 162° |
| 2026-04-13 15:18 | 39.48713 | -121.97812 | 35163 ft | 488 kts | 162° |
| 2026-04-13 15:18 | 39.42234 | -121.95146 | 35165 ft | 488 kts | 162° |
| 2026-04-13 15:19 | 39.35757 | -121.92485 | 35162 ft | 488 kts | 162° |
| 2026-04-13 15:19 | 39.29345 | -121.89856 | 35162 ft | 486 kts | 162° |
| 2026-04-13 15:20 | 39.22892 | -121.87216 | 35158 ft | 487 kts | 162° |
| 2026-04-13 15:20 | 39.16440 | -121.84580 | 35161 ft | 485 kts | 162° |